TGW3411 WSSS-WIII
Flight info
| Callsign | TGW3411 |
|---|---|
| Flight time | 1h 20m |
| Altitude | 37000 |
| Route | ANITO7A ANITO B470 BUNIK |
| Aircraft | A20N/M-SDE2E3FGHIRWXY/LB1 |
Departure
| Time | 2026-05-06 04:49 |
|---|---|
| Airport | Singapore Changi Airport (WSSS) |
Arrival
| Time | 2026-05-06 06:10 |
|---|---|
| Airport | Soekarno-Hatta International Airport (WIII) |
| Time | Latitude | Longitude | Altitude | Speed | Heading |
|---|---|---|---|---|---|
| 2026-05-06 04:27 | 1.34983 | 103.98798 | 28 ft | 0 kts | 292° |
| 2026-05-06 04:36 | 1.34980 | 103.98807 | 28 ft | 2 kts | 292° |
| 2026-05-06 04:36 | 1.34974 | 103.98820 | 28 ft | 2 kts | 293° |
| 2026-05-06 04:36 | 1.34968 | 103.98834 | 27 ft | 2 kts | 292° |
| 2026-05-06 04:36 | 1.34962 | 103.98848 | 27 ft | 2 kts | 292° |
| 2026-05-06 04:37 | 1.34956 | 103.98862 | 28 ft | 2 kts | 273° |
| 2026-05-06 04:37 | 1.34960 | 103.98877 | 28 ft | 2 kts | 234° |
| 2026-05-06 04:37 | 1.34971 | 103.98886 | 28 ft | 2 kts | 197° |
| 2026-05-06 04:37 | 1.34986 | 103.98891 | 28 ft | 2 kts | 206° |
| 2026-05-06 04:38 | 1.34999 | 103.98897 | 28 ft | 2 kts | 202° |
| 2026-05-06 04:38 | 1.35007 | 103.98900 | 28 ft | 0 kts | 203° |
| 2026-05-06 04:40 | 1.35006 | 103.98900 | 28 ft | 0 kts | 203° |
| 2026-05-06 04:40 | 1.34996 | 103.98896 | 28 ft | 2 kts | 203° |
| 2026-05-06 04:41 | 1.34976 | 103.98888 | 28 ft | 0 kts | 203° |
| 2026-05-06 04:41 | 1.34969 | 103.98885 | 28 ft | 1 kts | 202° |
| 2026-05-06 04:41 | 1.34952 | 103.98883 | 28 ft | 3 kts | 167° |
| 2026-05-06 04:41 | 1.34921 | 103.98911 | 28 ft | 8 kts | 113° |
| 2026-05-06 04:42 | 1.34892 | 103.98978 | 28 ft | 11 kts | 112° |
| 2026-05-06 04:42 | 1.34856 | 103.99064 | 28 ft | 14 kts | 113° |
| 2026-05-06 04:42 | 1.34868 | 103.99145 | 28 ft | 14 kts | 28° |
| 2026-05-06 04:42 | 1.34966 | 103.99187 | 28 ft | 15 kts | 24° |
| 2026-05-06 04:43 | 1.35073 | 103.99233 | 28 ft | 17 kts | 22° |
| 2026-05-06 04:43 | 1.35191 | 103.99283 | 28 ft | 18 kts | 23° |
| 2026-05-06 04:43 | 1.35319 | 103.99337 | 28 ft | 20 kts | 23° |
| 2026-05-06 04:43 | 1.35449 | 103.99391 | 28 ft | 20 kts | 22° |
| 2026-05-06 04:44 | 1.35580 | 103.99445 | 28 ft | 20 kts | 22° |
| 2026-05-06 04:44 | 1.35712 | 103.99501 | 28 ft | 20 kts | 23° |
| 2026-05-06 04:44 | 1.35842 | 103.99556 | 28 ft | 20 kts | 23° |
| 2026-05-06 04:44 | 1.35974 | 103.99612 | 28 ft | 20 kts | 24° |
| 2026-05-06 04:45 | 1.36103 | 103.99666 | 28 ft | 20 kts | 23° |
| 2026-05-06 04:45 | 1.36229 | 103.99720 | 28 ft | 16 kts | 37° |
| 2026-05-06 04:45 | 1.36244 | 103.99777 | 28 ft | 0 kts | 111° |
| 2026-05-06 04:46 | 1.36244 | 103.99779 | 28 ft | 1 kts | 111° |
| 2026-05-06 04:47 | 1.36217 | 103.99842 | 28 ft | 16 kts | 115° |
| 2026-05-06 04:47 | 1.36169 | 103.99890 | 28 ft | 6 kts | 208° |
| 2026-05-06 04:47 | 1.36151 | 103.99881 | 28 ft | 0 kts | 202° |
| 2026-05-06 04:48 | 1.36121 | 103.99869 | 28 ft | 25 kts | 202° |
| 2026-05-06 04:48 | 1.35728 | 103.99702 | 28 ft | 94 kts | 203° |
| 2026-05-06 04:49 | 1.34930 | 103.99365 | 29 ft | 149 kts | 203° |
| 2026-05-06 04:49 | 1.33824 | 103.98899 | 166 ft | 181 kts | 203° |
| 2026-05-06 04:49 | 1.32688 | 103.98408 | 802 ft | 175 kts | 202° |
| 2026-05-06 04:49 | 1.31572 | 103.97934 | 1423 ft | 175 kts | 202° |
| 2026-05-06 04:50 | 1.30451 | 103.97455 | 1990 ft | 173 kts | 202° |
| 2026-05-06 04:50 | 1.29282 | 103.96973 | 2291 ft | 186 kts | 201° |
| 2026-05-06 04:50 | 1.28034 | 103.96458 | 2573 ft | 201 kts | 202° |
| 2026-05-06 04:50 | 1.26674 | 103.95891 | 2864 ft | 216 kts | 202° |
| 2026-05-06 04:51 | 1.25175 | 103.95264 | 3077 ft | 239 kts | 202° |
| 2026-05-06 04:51 | 1.23554 | 103.94666 | 3444 ft | 255 kts | 191° |
| 2026-05-06 04:51 | 1.21706 | 103.94662 | 3864 ft | 268 kts | 168° |
| 2026-05-06 04:51 | 1.19869 | 103.95110 | 4559 ft | 271 kts | 165° |
| 2026-05-06 04:52 | 1.18020 | 103.95598 | 5234 ft | 275 kts | 166° |
| 2026-05-06 04:52 | 1.16119 | 103.96090 | 5703 ft | 278 kts | 165° |
| 2026-05-06 04:52 | 1.14216 | 103.96571 | 5929 ft | 281 kts | 166° |
| 2026-05-06 04:52 | 1.12280 | 103.97054 | 5957 ft | 282 kts | 165° |
| 2026-05-06 04:53 | 1.10456 | 103.97764 | 5960 ft | 280 kts | 150° |
| 2026-05-06 04:53 | 1.08822 | 103.98861 | 5962 ft | 279 kts | 141° |
| 2026-05-06 04:53 | 1.07258 | 104.00082 | 5977 ft | 281 kts | 141° |
| 2026-05-06 04:53 | 1.05714 | 104.01308 | 5956 ft | 285 kts | 140° |
| 2026-05-06 04:54 | 1.04124 | 104.02558 | 6510 ft | 290 kts | 140° |
| 2026-05-06 04:54 | 1.02764 | 104.04020 | 7449 ft | 286 kts | 123° |
| 2026-05-06 04:54 | 1.01841 | 104.05774 | 8399 ft | 284 kts | 112° |
| 2026-05-06 04:54 | 1.01072 | 104.07620 | 9202 ft | 287 kts | 111° |
| 2026-05-06 04:55 | 1.00310 | 104.09477 | 9940 ft | 289 kts | 111° |
| 2026-05-06 04:55 | 0.99534 | 104.11344 | 10642 ft | 296 kts | 111° |
| 2026-05-06 04:55 | 0.98696 | 104.13344 | 11005 ft | 314 kts | 112° |
| 2026-05-06 04:55 | 0.97828 | 104.15408 | 11306 ft | 331 kts | 112° |
| 2026-05-06 04:56 | 0.96908 | 104.17596 | 11578 ft | 347 kts | 112° |
| 2026-05-06 04:56 | 0.95936 | 104.19901 | 11842 ft | 362 kts | 112° |
| 2026-05-06 04:56 | 0.94854 | 104.22228 | 12290 ft | 371 kts | 116° |
| 2026-05-06 04:56 | 0.93605 | 104.24509 | 12881 ft | 374 kts | 119° |
| 2026-05-06 04:57 | 0.92239 | 104.26732 | 13475 ft | 377 kts | 120° |
| 2026-05-06 04:57 | 0.90821 | 104.29003 | 14018 ft | 380 kts | 120° |
| 2026-05-06 04:57 | 0.89417 | 104.31245 | 14528 ft | 383 kts | 121° |
| 2026-05-06 04:57 | 0.87974 | 104.33534 | 15070 ft | 386 kts | 120° |
| 2026-05-06 04:58 | 0.86536 | 104.35825 | 15587 ft | 389 kts | 120° |
| 2026-05-06 04:58 | 0.85078 | 104.38160 | 16071 ft | 392 kts | 120° |
| 2026-05-06 04:58 | 0.83618 | 104.40501 | 16543 ft | 395 kts | 120° |
| 2026-05-06 04:58 | 0.82135 | 104.42831 | 17007 ft | 398 kts | 122° |
| 2026-05-06 04:59 | 0.80538 | 104.45120 | 17444 ft | 401 kts | 123° |
| 2026-05-06 04:59 | 0.78906 | 104.47422 | 17858 ft | 404 kts | 123° |
| 2026-05-06 04:59 | 0.77259 | 104.49738 | 18307 ft | 406 kts | 123° |
| 2026-05-06 04:59 | 0.75595 | 104.52078 | 18746 ft | 408 kts | 123° |
| 2026-05-06 05:00 | 0.73897 | 104.54379 | 19124 ft | 412 kts | 129° |
| 2026-05-06 05:00 | 0.71755 | 104.56330 | 19473 ft | 419 kts | 143° |
| 2026-05-06 05:00 | 0.69163 | 104.57738 | 19882 ft | 424 kts | 156° |
| 2026-05-06 05:00 | 0.66318 | 104.58654 | 20283 ft | 427 kts | 161° |
| 2026-05-06 05:01 | 0.63402 | 104.59493 | 20659 ft | 429 kts | 162° |
| 2026-05-06 05:01 | 0.60478 | 104.60333 | 21034 ft | 432 kts | 162° |
| 2026-05-06 05:01 | 0.57595 | 104.61176 | 21399 ft | 434 kts | 161° |
| 2026-05-06 05:01 | 0.54667 | 104.62041 | 21755 ft | 436 kts | 161° |
| 2026-05-06 05:02 | 0.51691 | 104.62926 | 22107 ft | 438 kts | 161° |
| 2026-05-06 05:02 | 0.48750 | 104.63801 | 22450 ft | 440 kts | 161° |
| 2026-05-06 05:02 | 0.45773 | 104.64686 | 22795 ft | 443 kts | 161° |
| 2026-05-06 05:02 | 0.42794 | 104.65569 | 23136 ft | 445 kts | 161° |
| 2026-05-06 05:03 | 0.39770 | 104.66477 | 23472 ft | 447 kts | 161° |
| 2026-05-06 05:03 | 0.36757 | 104.67381 | 23802 ft | 449 kts | 161° |
| 2026-05-06 05:03 | 0.33725 | 104.68285 | 24129 ft | 451 kts | 161° |
| 2026-05-06 05:03 | 0.30663 | 104.69196 | 24455 ft | 453 kts | 162° |
| 2026-05-06 05:04 | 0.27608 | 104.70101 | 24771 ft | 455 kts | 162° |
| 2026-05-06 05:04 | 0.24531 | 104.71012 | 25075 ft | 457 kts | 162° |
| 2026-05-06 05:04 | 0.21396 | 104.71941 | 25383 ft | 459 kts | 162° |
| 2026-05-06 05:04 | 0.18293 | 104.72859 | 25677 ft | 460 kts | 162° |
| 2026-05-06 05:05 | 0.15177 | 104.73782 | 25959 ft | 462 kts | 162° |
| 2026-05-06 05:05 | 0.12034 | 104.74714 | 26231 ft | 464 kts | 162° |
| 2026-05-06 05:05 | 0.08901 | 104.75644 | 26493 ft | 466 kts | 162° |
| 2026-05-06 05:05 | 0.05737 | 104.76585 | 26762 ft | 467 kts | 162° |
| 2026-05-06 05:06 | 0.02585 | 104.77522 | 27007 ft | 469 kts | 162° |
| 2026-05-06 05:06 | -0.00575 | 104.78461 | 27243 ft | 470 kts | 162° |
| 2026-05-06 05:06 | -0.03769 | 104.79409 | 27488 ft | 471 kts | 162° |
| 2026-05-06 05:06 | -0.06988 | 104.80364 | 27711 ft | 473 kts | 162° |
| 2026-05-06 05:07 | -0.10172 | 104.81310 | 27910 ft | 475 kts | 162° |
| 2026-05-06 05:07 | -0.13348 | 104.82250 | 28147 ft | 475 kts | 162° |
| 2026-05-06 05:07 | -0.16565 | 104.83202 | 28432 ft | 474 kts | 162° |
| 2026-05-06 05:07 | -0.19775 | 104.84151 | 28747 ft | 473 kts | 162° |
| 2026-05-06 05:08 | -0.22963 | 104.85109 | 29068 ft | 472 kts | 161° |
| 2026-05-06 05:08 | -0.26095 | 104.86245 | 29377 ft | 471 kts | 156° |
| 2026-05-06 05:08 | -0.29102 | 104.87606 | 29682 ft | 469 kts | 152° |
| 2026-05-06 05:08 | -0.31977 | 104.89188 | 29991 ft | 468 kts | 148° |
| 2026-05-06 05:09 | -0.34753 | 104.90980 | 30303 ft | 467 kts | 145° |
| 2026-05-06 05:09 | -0.36252 | 104.91988 | 30471 ft | 467 kts | 145° |
| 2026-05-06 05:09 | -0.38982 | 104.93842 | 30769 ft | 467 kts | 145° |
| 2026-05-06 05:09 | -0.41671 | 104.95672 | 31074 ft | 466 kts | 145° |
| 2026-05-06 05:10 | -0.44390 | 104.97520 | 31394 ft | 465 kts | 145° |
| 2026-05-06 05:10 | -0.47086 | 104.99349 | 31707 ft | 464 kts | 145° |
| 2026-05-06 05:10 | -0.49757 | 105.01160 | 32020 ft | 463 kts | 145° |
| 2026-05-06 05:10 | -0.52459 | 105.02991 | 32323 ft | 462 kts | 145° |
| 2026-05-06 05:11 | -0.55153 | 105.04815 | 32600 ft | 461 kts | 145° |
| 2026-05-06 05:11 | -0.57833 | 105.06630 | 32875 ft | 461 kts | 145° |
| 2026-05-06 05:11 | -0.60522 | 105.08450 | 33157 ft | 461 kts | 145° |
| 2026-05-06 05:11 | -0.63206 | 105.10266 | 33446 ft | 461 kts | 145° |
| 2026-05-06 05:12 | -0.65861 | 105.12062 | 33740 ft | 460 kts | 145° |
| 2026-05-06 05:12 | -0.68551 | 105.13882 | 34051 ft | 459 kts | 145° |
| 2026-05-06 05:12 | -0.71214 | 105.15685 | 34349 ft | 458 kts | 145° |
| 2026-05-06 05:12 | -0.73895 | 105.17499 | 34647 ft | 457 kts | 145° |
| 2026-05-06 05:13 | -0.76532 | 105.19283 | 34937 ft | 456 kts | 145° |
| 2026-05-06 05:13 | -0.79194 | 105.21084 | 35198 ft | 455 kts | 145° |
| 2026-05-06 05:13 | -0.81849 | 105.22881 | 35385 ft | 456 kts | 145° |
| 2026-05-06 05:13 | -0.84513 | 105.24686 | 35532 ft | 457 kts | 145° |
| 2026-05-06 05:14 | -0.87155 | 105.26473 | 35673 ft | 458 kts | 145° |
| 2026-05-06 05:14 | -0.89825 | 105.28281 | 35816 ft | 459 kts | 145° |
| 2026-05-06 05:14 | -0.92531 | 105.30112 | 35959 ft | 460 kts | 145° |
| 2026-05-06 05:14 | -0.95181 | 105.31906 | 36086 ft | 461 kts | 145° |
| 2026-05-06 05:15 | -0.97878 | 105.33732 | 36202 ft | 462 kts | 145° |
| 2026-05-06 05:15 | -1.00560 | 105.35547 | 36312 ft | 463 kts | 145° |
| 2026-05-06 05:15 | -1.03285 | 105.37392 | 36425 ft | 464 kts | 145° |
| 2026-05-06 05:15 | -1.05961 | 105.39203 | 36540 ft | 464 kts | 145° |
| 2026-05-06 05:16 | -1.08688 | 105.41048 | 36659 ft | 464 kts | 145° |
| 2026-05-06 05:16 | -1.11376 | 105.42866 | 36768 ft | 465 kts | 145° |
| 2026-05-06 05:16 | -1.14088 | 105.44690 | 36801 ft | 466 kts | 145° |
| 2026-05-06 05:17 | -1.19532 | 105.48359 | 36812 ft | 466 kts | 145° |
| 2026-05-06 05:17 | -1.24974 | 105.52036 | 36814 ft | 467 kts | 145° |
| 2026-05-06 05:18 | -1.30395 | 105.55704 | 36814 ft | 467 kts | 145° |
| 2026-05-06 05:18 | -1.35855 | 105.59400 | 36814 ft | 467 kts | 145° |
| 2026-05-06 05:19 | -1.41263 | 105.63062 | 36817 ft | 467 kts | 145° |
| 2026-05-06 05:19 | -1.46722 | 105.66768 | 36820 ft | 468 kts | 144° |
| 2026-05-06 05:20 | -1.52148 | 105.70472 | 36822 ft | 468 kts | 144° |
| 2026-05-06 05:20 | -1.57592 | 105.74172 | 36826 ft | 468 kts | 145° |
| 2026-05-06 05:21 | -1.63051 | 105.77872 | 36827 ft | 468 kts | 145° |
| 2026-05-06 05:21 | -1.68527 | 105.81583 | 36825 ft | 468 kts | 145° |
| 2026-05-06 05:22 | -1.73946 | 105.85253 | 36825 ft | 469 kts | 145° |
| 2026-05-06 05:22 | -1.79422 | 105.88963 | 36825 ft | 469 kts | 145° |
| 2026-05-06 05:23 | -1.84893 | 105.92670 | 36831 ft | 469 kts | 145° |
| 2026-05-06 05:23 | -1.93049 | 105.98198 | 36832 ft | 469 kts | 145° |
| 2026-05-06 05:24 | -1.98534 | 106.01914 | 36833 ft | 469 kts | 145° |
| 2026-05-06 05:24 | -2.03993 | 106.05615 | 36830 ft | 469 kts | 145° |
| 2026-05-06 05:25 | -2.09461 | 106.09289 | 36827 ft | 469 kts | 147° |
| 2026-05-06 05:25 | -2.15321 | 106.12438 | 36824 ft | 470 kts | 155° |
| 2026-05-06 05:26 | -2.21494 | 106.14725 | 36822 ft | 470 kts | 163° |
| 2026-05-06 05:26 | -2.28003 | 106.16181 | 36821 ft | 471 kts | 169° |
| 2026-05-06 05:27 | -2.34512 | 106.17284 | 36820 ft | 471 kts | 170° |
| 2026-05-06 05:27 | -2.41065 | 106.18390 | 36819 ft | 470 kts | 169° |
| 2026-05-06 05:28 | -2.47596 | 106.19502 | 36819 ft | 470 kts | 169° |
| 2026-05-06 05:28 | -2.54147 | 106.20621 | 36821 ft | 470 kts | 169° |
| 2026-05-06 05:29 | -2.60692 | 106.21741 | 36821 ft | 471 kts | 169° |
| 2026-05-06 05:29 | -2.67214 | 106.22857 | 36822 ft | 470 kts | 169° |
| 2026-05-06 05:30 | -2.73735 | 106.23973 | 36823 ft | 470 kts | 169° |
| 2026-05-06 05:30 | -2.80248 | 106.25088 | 36818 ft | 470 kts | 169° |
| 2026-05-06 05:31 | -2.86780 | 106.26205 | 36807 ft | 469 kts | 169° |
| 2026-05-06 05:31 | -2.93272 | 106.27319 | 36801 ft | 469 kts | 169° |
| 2026-05-06 05:32 | -2.99803 | 106.28438 | 36803 ft | 470 kts | 169° |
| 2026-05-06 05:32 | -3.06309 | 106.29552 | 36804 ft | 470 kts | 169° |
| 2026-05-06 05:33 | -3.12813 | 106.30663 | 36805 ft | 470 kts | 169° |
| 2026-05-06 05:33 | -3.19326 | 106.31775 | 36808 ft | 469 kts | 169° |
| 2026-05-06 05:34 | -3.25834 | 106.32888 | 36816 ft | 469 kts | 169° |
| 2026-05-06 05:34 | -3.32325 | 106.34001 | 36819 ft | 469 kts | 169° |
| 2026-05-06 05:35 | -3.38885 | 106.35126 | 36820 ft | 469 kts | 169° |
| 2026-05-06 05:35 | -3.45361 | 106.36237 | 36819 ft | 470 kts | 169° |
| 2026-05-06 05:36 | -3.51888 | 106.37359 | 36816 ft | 470 kts | 169° |
| 2026-05-06 05:36 | -3.58406 | 106.38479 | 36815 ft | 469 kts | 169° |
| 2026-05-06 05:37 | -3.64935 | 106.39616 | 36816 ft | 468 kts | 169° |
| 2026-05-06 05:37 | -3.71428 | 106.40826 | 36816 ft | 468 kts | 168° |
| 2026-05-06 05:38 | -3.77899 | 106.42044 | 36816 ft | 468 kts | 168° |
| 2026-05-06 05:38 | -3.84362 | 106.43256 | 36814 ft | 468 kts | 168° |
| 2026-05-06 05:39 | -3.90850 | 106.44472 | 36815 ft | 468 kts | 168° |
| 2026-05-06 05:39 | -3.97338 | 106.45686 | 36815 ft | 467 kts | 168° |
| 2026-05-06 05:40 | -4.03796 | 106.46896 | 36815 ft | 467 kts | 168° |
| 2026-05-06 05:40 | -4.10215 | 106.48099 | 36815 ft | 467 kts | 168° |
| 2026-05-06 05:41 | -4.16706 | 106.49309 | 36815 ft | 467 kts | 168° |
| 2026-05-06 05:41 | -4.23191 | 106.50520 | 36815 ft | 468 kts | 168° |
| 2026-05-06 05:42 | -4.29642 | 106.51727 | 36816 ft | 468 kts | 168° |
| 2026-05-06 05:42 | -4.36116 | 106.52941 | 36814 ft | 468 kts | 168° |
| 2026-05-06 05:43 | -4.42603 | 106.54157 | 36812 ft | 469 kts | 168° |
| 2026-05-06 05:43 | -4.49122 | 106.55381 | 36811 ft | 469 kts | 168° |
| 2026-05-06 05:44 | -4.55631 | 106.56603 | 36809 ft | 468 kts | 168° |
| 2026-05-06 05:44 | -4.62125 | 106.57822 | 36789 ft | 469 kts | 168° |
| 2026-05-06 05:45 | -4.65362 | 106.58431 | 36621 ft | 467 kts | 168° |
| 2026-05-06 05:45 | -4.68559 | 106.59032 | 36189 ft | 463 kts | 168° |
| 2026-05-06 05:45 | -4.71776 | 106.59638 | 35334 ft | 464 kts | 168° |
| 2026-05-06 05:45 | -4.75009 | 106.60248 | 34298 ft | 468 kts | 168° |
| 2026-05-06 05:46 | -4.78221 | 106.60851 | 33291 ft | 471 kts | 168° |
| 2026-05-06 05:46 | -4.81461 | 106.61498 | 32314 ft | 473 kts | 166° |
| 2026-05-06 05:46 | -4.84694 | 106.62322 | 31351 ft | 476 kts | 163° |
| 2026-05-06 05:46 | -4.87874 | 106.63335 | 30459 ft | 476 kts | 159° |
| 2026-05-06 05:47 | -4.91011 | 106.64545 | 29584 ft | 476 kts | 156° |
| 2026-05-06 05:47 | -4.94090 | 106.65918 | 28726 ft | 476 kts | 154° |
| 2026-05-06 05:47 | -4.97102 | 106.67316 | 27856 ft | 477 kts | 154° |
| 2026-05-06 05:47 | -5.00157 | 106.68738 | 27182 ft | 473 kts | 154° |
| 2026-05-06 05:48 | -5.03162 | 106.70129 | 26621 ft | 467 kts | 154° |
| 2026-05-06 05:48 | -5.06137 | 106.71499 | 26062 ft | 462 kts | 154° |
| 2026-05-06 05:48 | -5.09075 | 106.72845 | 25496 ft | 458 kts | 154° |
| 2026-05-06 05:48 | -5.11965 | 106.74165 | 25140 ft | 448 kts | 154° |
| 2026-05-06 05:49 | -5.14809 | 106.75458 | 24997 ft | 433 kts | 153° |
| 2026-05-06 05:49 | -5.17530 | 106.76698 | 24852 ft | 419 kts | 154° |
| 2026-05-06 05:49 | -5.20179 | 106.77900 | 24539 ft | 411 kts | 154° |
| 2026-05-06 05:49 | -5.22818 | 106.79091 | 24177 ft | 405 kts | 153° |
| 2026-05-06 05:50 | -5.25375 | 106.80244 | 23802 ft | 399 kts | 153° |
| 2026-05-06 05:50 | -5.27930 | 106.81400 | 23432 ft | 393 kts | 153° |
| 2026-05-06 05:50 | -5.30441 | 106.82537 | 23076 ft | 388 kts | 153° |
| 2026-05-06 05:50 | -5.32932 | 106.83666 | 22725 ft | 382 kts | 153° |
| 2026-05-06 05:51 | -5.35360 | 106.84765 | 22384 ft | 377 kts | 153° |
| 2026-05-06 05:51 | -5.37758 | 106.85852 | 22054 ft | 372 kts | 153° |
| 2026-05-06 05:51 | -5.40113 | 106.86920 | 21758 ft | 366 kts | 153° |
| 2026-05-06 05:51 | -5.42450 | 106.87979 | 21460 ft | 360 kts | 153° |
| 2026-05-06 05:52 | -5.44761 | 106.89019 | 21142 ft | 356 kts | 155° |
| 2026-05-06 05:52 | -5.47189 | 106.89610 | 20520 ft | 367 kts | 178° |
| 2026-05-06 05:52 | -5.49744 | 106.89111 | 19769 ft | 380 kts | 204° |
| 2026-05-06 05:52 | -5.51935 | 106.87524 | 19022 ft | 388 kts | 227° |
| 2026-05-06 05:53 | -5.53708 | 106.85464 | 18439 ft | 391 kts | 230° |
| 2026-05-06 05:53 | -5.55472 | 106.83369 | 17944 ft | 389 kts | 229° |
| 2026-05-06 05:53 | -5.57269 | 106.81307 | 17350 ft | 382 kts | 228° |
| 2026-05-06 05:53 | -5.59052 | 106.79327 | 16618 ft | 377 kts | 227° |
| 2026-05-06 05:54 | -5.60816 | 106.77409 | 15881 ft | 372 kts | 226° |
| 2026-05-06 05:54 | -5.62606 | 106.75487 | 15112 ft | 367 kts | 226° |
| 2026-05-06 05:54 | -5.64342 | 106.73637 | 14576 ft | 355 kts | 225° |
| 2026-05-06 05:54 | -5.66019 | 106.71858 | 14149 ft | 348 kts | 225° |
| 2026-05-06 05:55 | -5.67687 | 106.70093 | 13734 ft | 345 kts | 225° |
| 2026-05-06 05:55 | -5.69368 | 106.68315 | 13329 ft | 343 kts | 225° |
| 2026-05-06 05:55 | -5.71024 | 106.66565 | 12937 ft | 341 kts | 225° |
| 2026-05-06 05:55 | -5.72669 | 106.64829 | 12546 ft | 340 kts | 225° |
| 2026-05-06 05:56 | -5.74300 | 106.63107 | 12146 ft | 339 kts | 225° |
| 2026-05-06 05:56 | -5.75941 | 106.61376 | 11736 ft | 338 kts | 225° |
| 2026-05-06 05:56 | -5.77576 | 106.59651 | 11327 ft | 337 kts | 225° |
| 2026-05-06 05:56 | -5.79208 | 106.57927 | 10923 ft | 335 kts | 225° |
| 2026-05-06 05:57 | -5.80842 | 106.56200 | 10521 ft | 334 kts | 225° |
| 2026-05-06 05:57 | -5.82444 | 106.54507 | 10147 ft | 332 kts | 225° |
| 2026-05-06 05:57 | -5.84027 | 106.52831 | 10067 ft | 318 kts | 225° |
| 2026-05-06 05:57 | -5.85525 | 106.51245 | 10005 ft | 304 kts | 225° |
| 2026-05-06 05:58 | -5.86975 | 106.49712 | 9793 ft | 298 kts | 225° |
| 2026-05-06 05:58 | -5.88417 | 106.48187 | 9451 ft | 297 kts | 225° |
| 2026-05-06 05:58 | -5.89865 | 106.46659 | 9127 ft | 296 kts | 225° |
| 2026-05-06 05:58 | -5.91301 | 106.45140 | 8806 ft | 295 kts | 225° |
| 2026-05-06 05:59 | -5.92718 | 106.43641 | 8485 ft | 294 kts | 225° |
| 2026-05-06 05:59 | -5.94138 | 106.42138 | 8170 ft | 292 kts | 225° |
| 2026-05-06 05:59 | -5.95540 | 106.40653 | 7852 ft | 291 kts | 225° |
| 2026-05-06 05:59 | -5.96957 | 106.39154 | 7535 ft | 289 kts | 225° |
| 2026-05-06 06:00 | -5.98355 | 106.37674 | 7224 ft | 288 kts | 225° |
| 2026-05-06 06:00 | -5.99727 | 106.36223 | 6994 ft | 282 kts | 225° |
| 2026-05-06 06:00 | -6.01073 | 106.34798 | 6974 ft | 267 kts | 225° |
| 2026-05-06 06:00 | -6.02322 | 106.33464 | 6974 ft | 258 kts | 225° |
| 2026-05-06 06:01 | -6.03590 | 106.32140 | 6963 ft | 257 kts | 219° |
| 2026-05-06 06:01 | -6.05165 | 106.31335 | 6958 ft | 249 kts | 183° |
| 2026-05-06 06:01 | -6.06906 | 106.31450 | 6790 ft | 247 kts | 165° |
| 2026-05-06 06:01 | -6.08596 | 106.31862 | 6503 ft | 246 kts | 162° |
| 2026-05-06 06:02 | -6.10267 | 106.32276 | 6224 ft | 245 kts | 164° |
| 2026-05-06 06:02 | -6.11969 | 106.32645 | 5959 ft | 245 kts | 165° |
| 2026-05-06 06:02 | -6.13661 | 106.32975 | 5690 ft | 243 kts | 166° |
| 2026-05-06 06:02 | -6.15343 | 106.33284 | 5429 ft | 241 kts | 167° |
| 2026-05-06 06:03 | -6.17020 | 106.33584 | 5161 ft | 240 kts | 167° |
| 2026-05-06 06:03 | -6.18668 | 106.33875 | 5005 ft | 236 kts | 167° |
| 2026-05-06 06:03 | -6.20284 | 106.34263 | 4959 ft | 235 kts | 152° |
| 2026-05-06 06:03 | -6.21484 | 106.35326 | 4650 ft | 228 kts | 121° |
| 2026-05-06 06:04 | -6.22304 | 106.36729 | 4376 ft | 226 kts | 117° |
| 2026-05-06 06:04 | -6.23063 | 106.38103 | 4117 ft | 225 kts | 118° |
| 2026-05-06 06:04 | -6.23795 | 106.39520 | 3975 ft | 222 kts | 105° |
| 2026-05-06 06:04 | -6.23765 | 106.41041 | 3968 ft | 220 kts | 70° |
| 2026-05-06 06:05 | -6.23149 | 106.42481 | 4004 ft | 223 kts | 66° |
| 2026-05-06 06:05 | -6.22483 | 106.43917 | 3970 ft | 224 kts | 66° |
| 2026-05-06 06:05 | -6.21848 | 106.45359 | 3768 ft | 224 kts | 68° |
| 2026-05-06 06:05 | -6.21239 | 106.46819 | 3473 ft | 223 kts | 69° |
| 2026-05-06 06:06 | -6.20655 | 106.48270 | 3183 ft | 222 kts | 69° |
| 2026-05-06 06:06 | -6.20080 | 106.49719 | 2894 ft | 220 kts | 69° |
| 2026-05-06 06:06 | -6.19514 | 106.51148 | 2615 ft | 219 kts | 69° |
| 2026-05-06 06:06 | -6.18945 | 106.52584 | 2338 ft | 217 kts | 69° |
| 2026-05-06 06:07 | -6.18404 | 106.53947 | 2071 ft | 204 kts | 68° |
| 2026-05-06 06:07 | -6.17895 | 106.55228 | 1892 ft | 186 kts | 68° |
| 2026-05-06 06:07 | -6.17431 | 106.56396 | 1645 ft | 173 kts | 69° |
| 2026-05-06 06:07 | -6.17000 | 106.57481 | 1405 ft | 161 kts | 68° |
| 2026-05-06 06:08 | -6.16609 | 106.58463 | 1193 ft | 150 kts | 68° |
| 2026-05-06 06:08 | -6.16216 | 106.59450 | 1014 ft | 150 kts | 68° |
| 2026-05-06 06:08 | -6.15830 | 106.60415 | 836 ft | 142 kts | 68° |
| 2026-05-06 06:08 | -6.15468 | 106.61326 | 657 ft | 138 kts | 68° |
| 2026-05-06 06:09 | -6.15111 | 106.62218 | 491 ft | 137 kts | 68° |
| 2026-05-06 06:09 | -6.14753 | 106.63115 | 347 ft | 136 kts | 67° |
| 2026-05-06 06:09 | -6.14395 | 106.64007 | 148 ft | 136 kts | 69° |
| 2026-05-06 06:09 | -6.14042 | 106.64896 | 50 ft | 133 kts | 68° |
| 2026-05-06 06:10 | -6.13869 | 106.65335 | 47 ft | 14 kts | 68° |
| 2026-05-06 06:10 | -6.13820 | 106.65452 | 47 ft | 26 kts | 68° |
| 2026-05-06 06:10 | -6.13727 | 106.65685 | 47 ft | 45 kts | 68° |
| 2026-05-06 06:10 | -6.13597 | 106.66014 | 47 ft | 43 kts | 68° |
| 2026-05-06 06:11 | -6.13478 | 106.66218 | 47 ft | 30 kts | 45° |
| 2026-05-06 06:11 | -6.13345 | 106.66301 | 47 ft | 15 kts | 351° |
| 2026-05-06 06:11 | -6.13323 | 106.66219 | 47 ft | 14 kts | 248° |
| 2026-05-06 06:11 | -6.13361 | 106.66120 | 47 ft | 15 kts | 249° |
| 2026-05-06 06:12 | -6.13401 | 106.66019 | 47 ft | 15 kts | 248° |
| 2026-05-06 06:12 | -6.13443 | 106.65916 | 47 ft | 16 kts | 248° |
| 2026-05-06 06:12 | -6.13488 | 106.65805 | 47 ft | 17 kts | 248° |
| 2026-05-06 06:12 | -6.13533 | 106.65690 | 47 ft | 18 kts | 248° |
| 2026-05-06 06:13 | -6.13582 | 106.65568 | 47 ft | 18 kts | 248° |
| 2026-05-06 06:13 | -6.13632 | 106.65442 | 47 ft | 19 kts | 248° |
| 2026-05-06 06:13 | -6.13683 | 106.65313 | 47 ft | 20 kts | 248° |
| 2026-05-06 06:13 | -6.13736 | 106.65181 | 47 ft | 20 kts | 248° |
| 2026-05-06 06:14 | -6.13790 | 106.65046 | 47 ft | 17 kts | 248° |
| 2026-05-06 06:14 | -6.13751 | 106.64960 | 47 ft | 15 kts | 338° |
| 2026-05-06 06:14 | -6.13645 | 106.64918 | 47 ft | 16 kts | 338° |
| 2026-05-06 06:14 | -6.13534 | 106.64874 | 47 ft | 17 kts | 337° |
| 2026-05-06 06:15 | -6.13417 | 106.64827 | 47 ft | 18 kts | 338° |
| 2026-05-06 06:15 | -6.13297 | 106.64779 | 47 ft | 18 kts | 338° |
| 2026-05-06 06:15 | -6.13173 | 106.64729 | 47 ft | 19 kts | 338° |
| 2026-05-06 06:15 | -6.13063 | 106.64685 | 57 ft | 13 kts | 339° |
| 2026-05-06 06:16 | -6.12996 | 106.64659 | 64 ft | 8 kts | 338° |
| 2026-05-06 06:16 | -6.12922 | 106.64630 | 62 ft | 16 kts | 339° |
| 2026-05-06 06:16 | -6.12794 | 106.64580 | 48 ft | 20 kts | 337° |
| 2026-05-06 06:16 | -6.12657 | 106.64525 | 47 ft | 20 kts | 338° |
| 2026-05-06 06:17 | -6.12525 | 106.64471 | 47 ft | 19 kts | 338° |
| 2026-05-06 06:17 | -6.12397 | 106.64420 | 47 ft | 19 kts | 338° |
| 2026-05-06 06:17 | -6.12266 | 106.64368 | 47 ft | 15 kts | 339° |
| 2026-05-06 06:17 | -6.12186 | 106.64407 | 47 ft | 15 kts | 68° |
| 2026-05-06 06:18 | -6.12144 | 106.64510 | 47 ft | 16 kts | 68° |
| 2026-05-06 06:18 | -6.12101 | 106.64619 | 47 ft | 17 kts | 68° |
| 2026-05-06 06:18 | -6.12055 | 106.64734 | 47 ft | 17 kts | 68° |
| 2026-05-06 06:18 | -6.12008 | 106.64854 | 47 ft | 18 kts | 68° |
| 2026-05-06 06:19 | -6.11959 | 106.64976 | 47 ft | 19 kts | 68° |
| 2026-05-06 06:19 | -6.11909 | 106.65102 | 47 ft | 19 kts | 68° |
| 2026-05-06 06:19 | -6.11858 | 106.65229 | 47 ft | 19 kts | 68° |
| 2026-05-06 06:19 | -6.11806 | 106.65359 | 47 ft | 20 kts | 68° |
| 2026-05-06 06:20 | -6.11752 | 106.65492 | 47 ft | 20 kts | 69° |
| 2026-05-06 06:20 | -6.11700 | 106.65624 | 47 ft | 20 kts | 68° |
| 2026-05-06 06:20 | -6.11649 | 106.65752 | 47 ft | 19 kts | 68° |
| 2026-05-06 06:20 | -6.11599 | 106.65878 | 47 ft | 19 kts | 68° |
| 2026-05-06 06:21 | -6.11551 | 106.66000 | 47 ft | 14 kts | 68° |
| 2026-05-06 06:21 | -6.11511 | 106.66098 | 47 ft | 15 kts | 68° |
| 2026-05-06 06:21 | -6.11470 | 106.66204 | 47 ft | 16 kts | 69° |
| 2026-05-06 06:21 | -6.11437 | 106.66309 | 47 ft | 13 kts | 108° |
| 2026-05-06 06:22 | -6.11520 | 106.66357 | 47 ft | 14 kts | 158° |
| 2026-05-06 06:22 | -6.11621 | 106.66399 | 47 ft | 16 kts | 157° |
| 2026-05-06 06:22 | -6.11723 | 106.66443 | 47 ft | 11 kts | 158° |
| 2026-05-06 06:22 | -6.11767 | 106.66461 | 47 ft | 0 kts | 158° |